Time;durP1;ratioP1;P1;durP2;ratioP2;P2;SDS_P1;SDS_P2;PMS_P1;PMS_P2;Temp;Humidity;BMP_temperature;BMP_pressure;BME280_temperature;BME280_humidity;BME280_pressure;Samples;Min_cycle;Max_cycle;Signal;HPM_P1;HPM_P2
2024/02/16 00:01:41;;;;;;;;;;;153.90;2252.80;;;;;;4957746;29;19995;-74
2024/02/16 00:04:07;;;;;;;;;;;153.70;2252.80;;;;;;4957613;29;19941;-74
2024/02/16 00:06:33;;;;;;;;;;;153.60;2252.80;;;;;;4958615;28;19906;-74
2024/02/16 00:08:59;;;;;;;;;;;128.90;2252.80;;;;;;4953626;28;20288;-75
2024/02/16 00:11:25;;;;;;;;;;;128.70;2252.80;;;;;;4956046;29;19929;-74
2024/02/16 00:13:50;;;;;;;;;;;128.80;2252.80;;;;;;4952747;29;20419;-74
2024/02/16 00:16:17;;;;;;;;;;;128.80;2252.80;;;;;;4953625;29;19929;-75
2024/02/16 00:18:43;;;;;;;;;;;128.90;2252.80;;;;;;4960844;28;19919;-76
2024/02/16 00:21:09;;;;;;;;;;;128.60;2252.80;;;;;;4939477;29;19922;-75
2024/02/16 00:23:34;;;;;;;;;;;128.50;2252.80;;;;;;4955240;29;19910;-75
2024/02/16 00:26:01;;;;;;;;;;;128.60;2252.80;;;;;;4955440;29;19906;-75
2024/02/16 00:28:26;;;;;;;;;;;128.80;2252.80;;;;;;4956803;29;19957;-74
2024/02/16 00:30:52;;;;;;;;;;;128.90;2252.80;;;;;;4940112;29;20017;-75
2024/02/16 00:33:18;;;;;;;;;;;128.60;2252.80;;;;;;4957038;29;19916;-74
2024/02/16 00:35:44;;;;;;;;;;;128.60;2252.80;;;;;;4939434;29;19906;-74
2024/02/16 00:38:10;;;;;;;;;;;128.60;2252.80;;;;;;4954878;29;19910;-75
2024/02/16 00:40:37;;;;;;;;;;;128.80;2252.80;;;;;;4957080;29;19913;-76
2024/02/16 00:43:03;;;;;;;;;;;128.90;2252.80;;;;;;4956521;28;19985;-75
2024/02/16 00:45:29;;;;;;;;;;;128.90;2252.80;;;;;;4955052;29;20361;-74
2024/02/16 00:47:54;;;;;;;;;;;153.70;2252.80;;;;;;4956578;29;19918;-75
2024/02/16 00:50:20;;;;;;;;;;;153.90;2252.80;;;;;;4956686;29;19918;-75
2024/02/16 00:52:45;;;;;;;;;;;153.90;2252.80;;;;;;4954571;29;20372;-75
2024/02/16 00:55:12;;;;;;;;;;;153.80;2252.80;;;;;;4956324;29;19911;-75
2024/02/16 00:57:38;;;;;;;;;;;153.90;2252.80;;;;;;4937448;29;20379;-74
2024/02/16 01:00:04;;;;;;;;;;;153.90;2252.80;;;;;;4956321;29;19910;-74
2024/02/16 01:02:31;;;;;;;;;;;153.90;2252.80;;;;;;4943854;29;20276;-75
2024/02/16 01:05:01;;;;;;;;;;;153.80;2252.80;;;;;;4956350;29;19922;-75
2024/02/16 01:07:27;;;;;;;;;;;153.80;2252.80;;;;;;4947699;29;20439;-74
2024/02/16 01:09:53;;;;;;;;;;;153.80;2252.80;;;;;;4958649;28;20026;-74
2024/02/16 01:12:18;;;;;;;;;;;153.90;2252.80;;;;;;4954313;29;20286;-74
2024/02/16 01:14:44;;;;;;;;;;;154.00;2252.80;;;;;;4956060;29;20399;-74
2024/02/16 01:17:09;;;;;;;;;;;154.00;2252.80;;;;;;4955506;29;19910;-74
2024/02/16 01:19:35;;;;;;;;;;;154.00;2252.80;;;;;;4955931;28;19965;-74
2024/02/16 01:22:01;;;;;;;;;;;154.00;2252.80;;;;;;4954243;28;19953;-74
2024/02/16 01:24:26;;;;;;;;;;;154.10;2252.80;;;;;;4954841;28;20343;-74
2024/02/16 01:26:52;;;;;;;;;;;154.00;2252.80;;;;;;4939247;29;19998;-75
2024/02/16 01:29:18;;;;;;;;;;;154.10;2252.80;;;;;;4956356;29;20312;-75
2024/02/16 01:31:43;;;;;;;;;;;154.10;2252.80;;;;;;4956283;28;20345;-74
2024/02/16 01:34:09;;;;;;;;;;;154.10;2252.80;;;;;;4955707;29;19906;-74
2024/02/16 01:36:34;;;;;;;;;;;154.10;2252.80;;;;;;4956438;29;20365;-75
2024/02/16 01:39:00;;;;;;;;;;;154.20;2252.80;;;;;;4956329;29;19934;-74
2024/02/16 01:41:26;;;;;;;;;;;154.10;2252.80;;;;;;4956496;29;19956;-74
2024/02/16 01:43:57;;;;;;;;;;;154.20;2252.80;;;;;;4956507;29;19980;-74
2024/02/16 01:46:23;;;;;;;;;;;154.30;2252.80;;;;;;4955427;29;19911;-76
2024/02/16 01:48:50;;;;;;;;;;;154.20;2252.80;;;;;;4955494;29;19910;-74
2024/02/16 01:51:15;;;;;;;;;;;154.30;2252.80;;;;;;4946253;29;19972;-74
2024/02/16 01:53:41;;;;;;;;;;;154.30;2252.80;;;;;;4954331;28;19914;-75
2024/02/16 01:56:07;;;;;;;;;;;154.30;2252.80;;;;;;4938180;29;19961;-74
2024/02/16 01:58:33;;;;;;;;;;;154.20;2252.80;;;;;;4954183;29;19917;-74
2024/02/16 02:00:59;;;;;;;;;;;154.20;2252.80;;;;;;4955521;29;19906;-75
2024/02/16 02:03:24;;;;;;;;;;;154.20;2252.80;;;;;;4955349;28;19918;-75
2024/02/16 02:05:51;;;;;;;;;;;154.10;2252.80;;;;;;4955464;28;20321;-74
2024/02/16 02:08:16;;;;;;;;;;;154.10;2252.80;;;;;;4955500;28;19916;-74
2024/02/16 02:10:42;;;;;;;;;;;154.10;2252.80;;;;;;4955314;28;20009;-75
2024/02/16 02:13:08;;;;;;;;;;;154.10;2252.80;;;;;;4935773;29;19918;-74
2024/02/16 02:19:09;;;;;;;;;;;128.90;2252.80;;;;;;5224229;23;20037;-71
2024/02/16 02:21:35;;;;;;;;;;;128.40;2252.80;;;;;;4922582;29;19923;-75
2024/02/16 02:24:00;;;;;;;;;;;128.30;2252.80;;;;;;4930949;29;20400;-75
2024/02/16 02:26:26;;;;;;;;;;;128.30;2252.80;;;;;;4930385;29;20277;-74
2024/02/16 02:28:51;;;;;;;;;;;128.40;2252.80;;;;;;4918497;29;19910;-74
2024/02/16 02:31:17;;;;;;;;;;;128.40;2252.80;;;;;;4928235;29;19992;-74
2024/02/16 02:33:42;;;;;;;;;;;128.20;2252.80;;;;;;4921470;29;19914;-75
2024/02/16 02:36:08;;;;;;;;;;;128.10;2252.80;;;;;;4924806;29;19910;-76
2024/02/16 02:38:34;;;;;;;;;;;128.20;2252.80;;;;;;4934720;29;19907;-75
2024/02/16 02:41:00;;;;;;;;;;;103.30;2227.20;;;;;;4932338;29;19929;-75
2024/02/16 02:43:26;;;;;;;;;;;103.20;2227.20;;;;;;4932769;29;19982;-76
2024/02/16 02:45:51;;;;;;;;;;;103.00;2227.20;;;;;;4932085;29;19914;-75
2024/02/16 02:48:18;;;;;;;;;;;103.10;2227.20;;;;;;4930604;29;19974;-75
2024/02/16 02:50:43;;;;;;;;;;;103.20;2227.20;;;;;;4927342;29;20277;-76
2024/02/16 02:53:09;;;;;;;;;;;102.80;2227.20;;;;;;4934916;29;19911;-75
2024/02/16 02:55:34;;;;;;;;;;;102.90;2227.20;;;;;;4935062;29;19907;-75
2024/02/16 02:58:00;;;;;;;;;;;102.60;2227.20;;;;;;4934983;29;19957;-75
2024/02/16 03:00:25;;;;;;;;;;;102.60;2227.20;;;;;;4935526;29;19906;-75
2024/02/16 03:02:51;;;;;;;;;;;102.80;2227.20;;;;;;4931508;29;19951;-74
2024/02/16 03:05:19;;;;;;;;;;;102.80;2227.20;;;;;;4935325;29;19914;-75
2024/02/16 03:07:44;;;;;;;;;;;102.70;2227.20;;;;;;4934462;29;19907;-75
2024/02/16 03:10:10;;;;;;;;;;;102.80;2227.20;;;;;;4930555;29;19934;-74
2024/02/16 03:12:36;;;;;;;;;;;103.00;2227.20;;;;;;4929794;29;19913;-77
2024/02/16 03:15:02;;;;;;;;;;;103.10;2227.20;;;;;;4934950;29;19907;-74
2024/02/16 03:17:27;;;;;;;;;;;102.90;2227.20;;;;;;4934900;29;19997;-75
2024/02/16 03:19:53;;;;;;;;;;;103.00;2227.20;;;;;;4934522;29;20005;-75
2024/02/16 03:22:18;;;;;;;;;;;102.90;2227.20;;;;;;4931361;29;19911;-74
2024/02/16 03:24:45;;;;;;;;;;;103.00;2227.20;;;;;;4930292;29;20274;-75
2024/02/16 03:27:10;;;;;;;;;;;103.10;2227.20;;;;;;4933297;29;19911;-75
2024/02/16 03:29:36;;;;;;;;;;;103.30;2227.20;;;;;;4930725;29;19907;-75
2024/02/16 03:32:02;;;;;;;;;;;103.30;2227.20;;;;;;4924182;29;19907;-75
2024/02/16 03:34:27;;;;;;;;;;;103.30;2227.20;;;;;;4934609;29;20361;-74
2024/02/16 03:36:53;;;;;;;;;;;128.10;2252.80;;;;;;4930565;29;19910;-75
2024/02/16 03:39:20;;;;;;;;;;;128.00;2252.80;;;;;;4934414;29;19906;-74
2024/02/16 03:41:48;;;;;;;;;;;103.20;2227.20;;;;;;4930117;29;19957;-75
2024/02/16 03:44:15;;;;;;;;;;;102.90;2227.20;;;;;;4934649;29;19915;-75
2024/02/16 03:46:41;;;;;;;;;;;102.80;2227.20;;;;;;4933643;29;20357;-75
2024/02/16 03:49:07;;;;;;;;;;;102.60;2227.20;;;;;;4930247;29;19915;-75
2024/02/16 03:51:33;;;;;;;;;;;102.50;2227.20;;;;;;4924017;29;20285;-75
2024/02/16 03:53:59;;;;;;;;;;;102.40;2227.20;;;;;;4926509;29;19907;-74
2024/02/16 03:56:24;;;;;;;;;;;102.40;2227.20;;;;;;4931156;29;19911;-74
2024/02/16 03:58:50;;;;;;;;;;;102.40;2227.20;;;;;;4931815;29;19939;-75
2024/02/16 04:01:16;;;;;;;;;;;102.60;2227.20;;;;;;4931375;29;19989;-74
2024/02/16 04:03:41;;;;;;;;;;;102.50;2227.20;;;;;;4938679;29;19910;-75
2024/02/16 04:06:07;;;;;;;;;;;102.50;2227.20;;;;;;4938706;29;19965;-74
2024/02/16 04:08:33;;;;;;;;;;;102.40;2227.20;;;;;;4939157;29;19906;-76
2024/02/16 04:10:59;;;;;;;;;;;102.50;2227.20;;;;;;4921538;29;19907;-75
2024/02/16 04:13:25;;;;;;;;;;;77.70;2227.20;;;;;;4929966;29;20356;-74
2024/02/16 04:15:50;;;;;;;;;;;102.50;2227.20;;;;;;4923800;29;19954;-75
2024/02/16 04:18:16;;;;;;;;;;;102.40;2227.20;;;;;;4938728;29;20337;-74
2024/02/16 04:20:41;;;;;;;;;;;77.70;2227.20;;;;;;4937115;29;19919;-75
2024/02/16 04:23:07;;;;;;;;;;;77.60;2227.20;;;;;;4937005;29;20009;-75
2024/02/16 04:25:33;;;;;;;;;;;77.50;2227.20;;;;;;4937547;29;19942;-75
2024/02/16 04:27:59;;;;;;;;;;;77.40;2227.20;;;;;;4937137;29;19961;-74
2024/02/16 04:30:25;;;;;;;;;;;77.20;2227.20;;;;;;4937350;29;19914;-73
2024/02/16 04:32:50;;;;;;;;;;;77.20;2227.20;;;;;;4938564;29;19962;-73
2024/02/16 04:35:16;;;;;;;;;;;77.20;2227.20;;;;;;4938556;29;19913;-73
2024/02/16 04:37:42;;;;;;;;;;;77.10;2227.20;;;;;;4938712;29;19915;-73
2024/02/16 04:40:08;;;;;;;;;;;77.00;2227.20;;;;;;4938569;29;19953;-75
2024/02/16 04:42:34;;;;;;;;;;;77.00;2227.20;;;;;;4938582;29;19907;-74
2024/02/16 04:44:59;;;;;;;;;;;77.00;2227.20;;;;;;4936967;29;19915;-76
2024/02/16 04:47:25;;;;;;;;;;;77.10;2227.20;;;;;;4937178;29;19913;-74
2024/02/16 04:49:51;;;;;;;;;;;77.00;2227.20;;;;;;4938027;29;19910;-74
2024/02/16 04:52:16;;;;;;;;;;;76.90;2227.20;;;;;;4938300;29;19919;-74
2024/02/16 04:54:42;;;;;;;;;;;76.90;2227.20;;;;;;4938295;29;19907;-75
2024/02/16 04:57:08;;;;;;;;;;;77.10;2227.20;;;;;;4936596;29;20320;-75
2024/02/16 04:59:33;;;;;;;;;;;77.20;2227.20;;;;;;4937183;29;19914;-74
2024/02/16 05:01:59;;;;;;;;;;;77.20;2227.20;;;;;;4937330;29;19946;-75
2024/02/16 05:04:24;;;;;;;;;;;77.20;2227.20;;;;;;4936516;29;19978;-74
2024/02/16 05:06:52;;;;;;;;;;;77.20;2227.20;;;;;;4936969;29;20364;-75
2024/02/16 05:09:18;;;;;;;;;;;77.10;2227.20;;;;;;4938073;29;20376;-74
2024/02/16 05:11:44;;;;;;;;;;;77.10;2227.20;;;;;;4937062;29;19914;-74
2024/02/16 05:14:11;;;;;;;;;;;77.10;2227.20;;;;;;4938180;29;19914;-75
2024/02/16 05:16:37;;;;;;;;;;;77.00;2227.20;;;;;;4937065;29;19989;-74
2024/02/16 05:19:03;;;;;;;;;;;76.80;2227.20;;;;;;4936253;29;19969;-75
2024/02/16 05:21:28;;;;;;;;;;;52.10;2227.20;;;;;;4937532;29;19946;-74
2024/02/16 05:23:55;;;;;;;;;;;52.00;2227.20;;;;;;4937544;29;19915;-75
2024/02/16 05:26:20;;;;;;;;;;;52.00;2227.20;;;;;;4936430;29;19906;-74
2024/02/16 05:28:47;;;;;;;;;;;52.10;2227.20;;;;;;4937609;29;19907;-74
2024/02/16 05:31:19;;;;;;;;;;;52.10;2227.20;;;;;;4937539;29;19910;-74
2024/02/16 05:33:47;;;;;;;;;;;76.90;2227.20;;;;;;4937528;29;19945;-74
2024/02/16 05:36:15;;;;;;;;;;;76.90;2227.20;;;;;;4937183;29;20385;-74
2024/02/16 05:38:43;;;;;;;;;;;77.00;2227.20;;;;;;4936100;29;19934;-75
2024/02/16 05:41:08;;;;;;;;;;;77.20;2227.20;;;;;;4936237;29;20349;-84
2024/02/16 05:43:34;;;;;;;;;;;77.20;2227.20;;;;;;4936022;29;19917;-74
2024/02/16 05:46:00;;;;;;;;;;;77.20;2227.20;;;;;;4937352;29;19907;-79
2024/02/16 05:48:29;;;;;;;;;;;77.30;2227.20;;;;;;4936139;29;19911;-75
2024/02/16 05:50:58;;;;;;;;;;;77.20;2227.20;;;;;;4937064;29;19917;-74
2024/02/16 05:53:25;;;;;;;;;;;76.90;2227.20;;;;;;4920479;29;19911;-75
2024/02/16 05:55:51;;;;;;;;;;;76.80;2227.20;;;;;;4935969;29;19966;-75
2024/02/16 05:58:17;;;;;;;;;;;76.80;2227.20;;;;;;4937164;29;19910;-75
2024/02/16 06:00:43;;;;;;;;;;;52.00;2227.20;;;;;;4937342;29;19907;-75
2024/02/16 06:03:08;;;;;;;;;;;52.00;2227.20;;;;;;4936933;29;20430;-73
2024/02/16 06:05:34;;;;;;;;;;;51.90;2227.20;;;;;;4936933;29;20308;-74
2024/02/16 06:08:00;;;;;;;;;;;51.90;2227.20;;;;;;4936998;29;19953;-74
2024/02/16 06:10:26;;;;;;;;;;;51.80;2227.20;;;;;;4936847;29;20268;-76
2024/02/16 06:12:51;;;;;;;;;;;51.90;2227.20;;;;;;4936727;29;19913;-74
2024/02/16 06:15:17;;;;;;;;;;;52.00;2227.20;;;;;;4936817;29;19907;-75
2024/02/16 06:17:43;;;;;;;;;;;52.10;2227.20;;;;;;4936762;29;19907;-75
2024/02/16 06:20:11;;;;;;;;;;;76.90;2227.20;;;;;;4932903;29;19939;-74
2024/02/16 06:22:37;;;;;;;;;;;76.90;2227.20;;;;;;4934396;29;19978;-75
2024/02/16 06:25:03;;;;;;;;;;;77.20;2227.20;;;;;;4935857;29;20321;-75
2024/02/16 06:27:28;;;;;;;;;;;77.50;2227.20;;;;;;4936259;29;20272;-73
2024/02/16 06:29:54;;;;;;;;;;;102.60;2227.20;;;;;;4935999;29;20378;-74
2024/02/16 06:32:19;;;;;;;;;;;103.00;2227.20;;;;;;4935516;29;19907;-74
2024/02/16 06:34:45;;;;;;;;;;;103.20;2227.20;;;;;;4935365;29;20392;-73
2024/02/16 06:37:11;;;;;;;;;;;128.20;2252.80;;;;;;4935875;29;19906;-73
2024/02/16 06:39:37;;;;;;;;;;;128.30;2252.80;;;;;;4935583;29;19911;-73
2024/02/16 06:42:02;;;;;;;;;;;128.40;2252.80;;;;;;4934027;29;19910;-75
2024/02/16 06:44:29;;;;;;;;;;;128.20;2252.80;;;;;;4932669;29;19919;-76
2024/02/16 06:46:54;;;;;;;;;;;128.30;2252.80;;;;;;4935801;29;19994;-81
2024/02/16 06:49:20;;;;;;;;;;;128.20;2252.80;;;;;;4936070;29;20009;-75
2024/02/16 06:51:45;;;;;;;;;;;128.40;2252.80;;;;;;4935663;29;19911;-81
2024/02/16 06:54:11;;;;;;;;;;;128.50;2252.80;;;;;;4934798;29;20421;-80
2024/02/16 06:56:37;;;;;;;;;;;128.70;2252.80;;;;;;4935686;29;19917;-80
2024/02/16 06:59:03;;;;;;;;;;;128.80;2252.80;;;;;;4929491;29;19910;-79
2024/02/16 07:01:29;;;;;;;;;;;128.70;2252.80;;;;;;4919464;29;20221;-81
2024/02/16 07:03:54;;;;;;;;;;;128.70;2252.80;;;;;;4931901;29;19911;-81
2024/02/16 07:06:20;;;;;;;;;;;128.90;2252.80;;;;;;4935311;29;20416;-77
2024/02/16 07:08:46;;;;;;;;;;;128.80;2252.80;;;;;;4935442;29;19907;-82
2024/02/16 07:11:12;;;;;;;;;;;153.60;2252.80;;;;;;4934481;29;19907;-80
2024/02/16 07:13:39;;;;;;;;;;;153.70;2252.80;;;;;;4936038;29;19910;-81
2024/02/16 07:16:06;;;;;;;;;;;153.80;2252.80;;;;;;4936003;29;20240;-75
2024/02/16 07:18:33;;;;;;;;;;;153.90;2252.80;;;;;;4934170;29;19954;-80
2024/02/16 07:20:59;;;;;;;;;;;153.90;2252.80;;;;;;4918585;29;19930;-75
2024/02/16 07:23:25;;;;;;;;;;;154.10;2252.80;;;;;;4934096;29;20300;-77
2024/02/16 07:25:50;;;;;;;;;;;153.60;2252.80;;;;;;4932253;29;19915;-81
2024/02/16 07:28:16;;;;;;;;;;;153.80;2252.80;;;;;;4935634;29;19929;-81
2024/02/16 07:30:42;;;;;;;;;;;153.70;2252.80;;;;;;4935264;29;20041;-84
2024/02/16 07:33:08;;;;;;;;;;;154.10;2252.80;;;;;;4939649;29;19910;-77
2024/02/16 07:35:35;;;;;;;;;;;154.00;2252.80;;;;;;4929291;29;19912;-80
2024/02/16 07:38:01;;;;;;;;;;;154.00;2252.80;;;;;;4933050;29;19930;-76
2024/02/16 07:40:27;;;;;;;;;;;154.10;2252.80;;;;;;4937944;29;19959;-76
2024/02/16 07:42:53;;;;;;;;;;;153.90;2252.80;;;;;;4941537;29;19950;-76
2024/02/16 07:45:19;;;;;;;;;;;154.40;2252.80;;;;;;4941641;29;19987;-75
2024/02/16 07:47:45;;;;;;;;;;;154.50;2252.80;;;;;;4932063;29;19906;-75
2024/02/16 07:50:11;;;;;;;;;;;179.30;2252.80;;;;;;4921516;29;20005;-80
2024/02/16 07:52:37;;;;;;;;;;;179.50;2252.80;;;;;;4938914;29;19958;-76
2024/02/16 07:55:04;;;;;;;;;;;179.80;2252.80;;;;;;4921841;29;19954;-77
2024/02/16 07:57:30;;;;;;;;;;;179.90;2252.80;;;;;;4939062;29;19907;-79
2024/02/16 07:59:56;;;;;;;;;;;179.90;2252.80;;;;;;4938831;29;19910;-78
2024/02/16 08:02:22;;;;;;;;;;;204.90;2252.80;;;;;;4937502;29;19974;-74
2024/02/16 08:04:48;;;;;;;;;;;205.10;2252.80;;;;;;4935138;29;20411;-78
2024/02/16 08:07:14;;;;;;;;;;;;;;;;;;4939030;29;19930;-78
2024/02/16 08:09:40;;;;;;;;;;;205.20;2252.80;;;;;;4939242;29;19910;-86
2024/02/16 08:12:06;;;;;;;;;;;205.60;2252.80;;;;;;4937634;29;20001;-77
2024/02/16 08:14:33;;;;;;;;;;;205.70;2252.80;;;;;;4926093;29;19907;-80
2024/02/16 08:16:59;;;;;;;;;;;230.40;2252.80;;;;;;4921128;29;19911;-79
2024/02/16 08:19:31;;;;;;;;;;;230.50;2252.80;;;;;;4937887;29;19917;-76
2024/02/16 08:21:56;;;;;;;;;;;230.60;2252.80;;;;;;4938316;29;20399;-75
2024/02/16 08:24:22;;;;;;;;;;;230.70;2252.80;;;;;;4938532;29;19914;-79
2024/02/16 08:26:47;;;;;;;;;;;230.70;2252.80;;;;;;4925854;29;19930;-82
2024/02/16 08:29:13;;;;;;;;;;;230.70;2252.80;;;;;;4937923;29;19915;-76
2024/02/16 08:31:39;;;;;;;;;;;230.70;2252.80;;;;;;4938522;29;20387;-82
2024/02/16 08:34:07;;;;;;;;;;;230.70;2252.80;;;;;;4935461;29;19907;-77
2024/02/16 08:36:33;;;;;;;;;;;230.80;2252.80;;;;;;4926875;29;19913;-78
2024/02/16 08:38:59;;;;;;;;;;;230.70;2252.80;;;;;;4933596;29;19978;-75
2024/02/16 08:41:25;;;;;;;;;;;230.80;2252.80;;;;;;4936135;29;20009;-77
2024/02/16 08:43:50;;;;;;;;;;;230.90;2252.80;;;;;;4937585;29;20348;-80
2024/02/16 08:46:16;;;;;;;;;;;230.90;2252.80;;;;;;4933610;29;19907;-76
2024/02/16 08:48:45;;;;;;;;;;;231.00;2252.80;;;;;;4935278;29;19910;-80
2024/02/16 08:51:11;;;;;;;;;;;231.10;2252.80;;;;;;4937086;29;19919;-75
2024/02/16 08:53:37;;;;;;;;;;;231.20;2252.80;;;;;;4922704;29;19910;-75
2024/02/16 08:56:02;;;;;;;;;;;256.00;2252.80;;;;;;4919931;29;20401;-76
2024/02/16 08:58:28;;;;;;;;;;;256.10;2252.80;;;;;;4936606;29;19907;-75
2024/02/16 09:00:54;;;;;;;;;;;256.30;2252.80;;;;;;4936623;29;19966;-76
2024/02/16 09:03:20;;;;;;;;;;;256.50;2252.80;;;;;;4935973;29;19911;-74
2024/02/16 09:05:45;;;;;;;;;;;256.50;2252.80;;;;;;4937232;29;19911;-79
2024/02/16 09:08:11;;;;;;;;;;;256.60;2252.80;;;;;;4929538;29;20347;-76
2024/02/16 09:10:37;;;;;;;;;;;256.80;2252.80;;;;;;4937237;29;19911;-81
2024/02/16 09:13:02;;;;;;;;;;;256.90;2252.80;;;;;;4922972;29;19914;-78
2024/02/16 09:15:28;;;;;;;;;;;281.60;2278.40;;;;;;4935543;29;19913;-75
2024/02/16 09:17:54;;;;;;;;;;;281.80;2278.40;;;;;;4935581;29;20323;-75
2024/02/16 09:20:22;;;;;;;;;;;281.80;2278.40;;;;;;4936018;29;19919;-79
2024/02/16 09:22:48;;;;;;;;;;;282.00;2278.40;;;;;;4934156;29;20005;-76
2024/02/16 09:25:14;;;;;;;;;;;282.10;2278.40;;;;;;4916799;29;20087;-75
2024/02/16 09:27:41;;;;;;;;;;;282.10;2278.40;;;;;;4935455;29;20388;-77
2024/02/16 09:30:10;;;;;;;;;;;282.40;2278.40;;;;;;4922671;29;20380;-76
2024/02/16 09:32:38;;;;;;;;;;;282.50;2278.40;;;;;;4936998;29;19980;-83
2024/02/16 09:35:04;;;;;;;;;;;307.30;2304.00;;;;;;4937298;29;20375;-82
2024/02/16 09:37:30;;;;;;;;;;;307.30;2304.00;;;;;;4936990;29;19938;-84
2024/02/16 09:39:55;;;;;;;;;;;307.60;2304.00;;;;;;4937000;29;20375;-83
2024/02/16 09:42:23;;;;;;;;;;;307.90;2227.20;;;;;;4937348;29;19906;-77
2024/02/16 09:44:50;;;;;;;;;;;332.90;2252.80;;;;;;4936540;29;19922;-75
2024/02/16 09:47:19;;;;;;;;;;;333.10;2176.00;;;;;;4936761;29;19907;-86
2024/02/16 09:49:45;;;;;;;;;;;333.40;2099.20;;;;;;4936354;29;19911;-80
2024/02/16 09:52:12;;;;;;;;;;;333.40;2073.60;;;;;;4936614;29;19957;-75
2024/02/16 09:54:39;;;;;;;;;;;333.50;1971.20;;;;;;4927621;29;19957;-79
2024/02/16 09:57:05;;;;;;;;;;;358.50;1945.60;;;;;;4937076;29;19906;-84
2024/02/16 09:59:32;;;;;;;;;;;358.60;1920.00;;;;;;4936406;29;19907;-73
2024/02/16 10:02:01;;;;;;;;;;;358.90;1894.40;;;;;;4936379;29;19910;-75
2024/02/16 10:04:27;;;;;;;;;;;384.00;1766.40;;;;;;4936431;29;19915;-72
2024/02/16 10:06:53;;;;;;;;;;;384.10;1766.40;;;;;;4936687;29;19911;-73
2024/02/16 10:09:22;;;;;;;;;;;384.40;1766.40;;;;;;4936442;29;19914;-79
2024/02/16 10:11:47;;;;;;;;;;;384.70;1689.60;;;;;;4929038;29;19911;-76
2024/02/16 10:14:13;;;;;;;;;;;384.90;1689.60;;;;;;4933858;29;19986;-76
2024/02/16 10:16:39;;;;;;;;;;;409.90;1689.60;;;;;;4936634;29;19993;-84
2024/02/16 10:19:10;;;;;;;;;;;410.00;1664.00;;;;;;4936117;29;20001;-80
2024/02/16 10:21:35;;;;;;;;;;;409.70;1612.80;;;;;;4936205;29;20260;-72
2024/02/16 10:24:05;;;;;;;;;;;410.10;1612.80;;;;;;4935479;29;19977;-83
2024/02/16 10:26:37;;;;;;;;;;;410.40;1638.40;;;;;;4936262;29;19914;-77
2024/02/16 10:29:03;;;;;;;;;;;410.10;1587.20;;;;;;4933829;29;19951;-81
2024/02/16 10:31:30;;;;;;;;;;;409.90;1587.20;;;;;;4936351;29;19954;-75
2024/02/16 10:34:16;;;;;;;;;;;435.30;1561.60;;;;;;4923907;29;20257;-81
2024/02/16 10:36:42;;;;;;;;;;;435.60;1536.00;;;;;;4918844;29;19914;-73
2024/02/16 10:39:08;;;;;;;;;;;435.80;1510.40;;;;;;4934692;29;20005;-74
2024/02/16 10:41:44;;;;;;;;;;;435.30;1484.80;;;;;;4935292;29;19914;-74
2024/02/16 10:44:10;;;;;;;;;;;435.20;1484.80;;;;;;4934265;29;20289;-73
2024/02/16 10:46:35;;;;;;;;;;;435.50;1484.80;;;;;;4935900;29;20005;-76
2024/02/16 10:49:05;;;;;;;;;;;435.80;1459.20;;;;;;4935707;29;19942;-74
2024/02/16 10:51:34;;;;;;;;;;;435.80;1484.80;;;;;;4935351;29;19969;-82
2024/02/16 10:54:00;;;;;;;;;;;435.90;1484.80;;;;;;4923755;29;19907;-80
2024/02/16 10:56:32;;;;;;;;;;;435.60;1459.20;;;;;;4931979;29;19913;-79
2024/02/16 10:59:00;;;;;;;;;;;435.90;1433.60;;;;;;4932627;29;19911;-78
2024/02/16 11:01:26;;;;;;;;;;;436.10;1408.00;;;;;;4935102;29;20020;-79
2024/02/16 11:04:00;;;;;;;;;;;460.80;1433.60;;;;;;4925268;29;19970;-77
2024/02/16 11:06:25;;;;;;;;;;;435.70;1382.40;;;;;;4918994;29;19918;-78
2024/02/16 11:08:52;;;;;;;;;;;461.00;1408.00;;;;;;4937990;29;19910;-74
2024/02/16 11:11:23;;;;;;;;;;;460.80;1382.40;;;;;;4938645;29;20416;-73
2024/02/16 11:13:49;;;;;;;;;;;435.90;1331.20;;;;;;4938970;29;19907;-82
2024/02/16 11:16:17;;;;;;;;;;;460.80;1382.40;;;;;;4938912;29;20018;-79
2024/02/16 11:18:49;;;;;;;;;;;460.80;1382.40;;;;;;4930544;29;19997;-80
2024/02/16 11:21:15;;;;;;;;;;;461.20;1382.40;;;;;;4939249;29;20002;-74
2024/02/16 11:23:44;;;;;;;;;;;461.20;1356.80;;;;;;4938890;29;19929;-77
2024/02/16 11:26:14;;;;;;;;;;;461.40;1382.40;;;;;;4928089;29;19966;-81
2024/02/16 11:28:41;;;;;;;;;;;461.40;1331.20;;;;;;4922452;29;19907;-81
2024/02/16 11:31:09;;;;;;;;;;;461.40;1331.20;;;;;;4934938;29;19907;-76
2024/02/16 11:33:35;;;;;;;;;;;461.50;1331.20;;;;;;4938425;29;19915;-74
2024/02/16 11:36:05;;;;;;;;;;;461.50;1305.60;;;;;;4918941;29;20366;-80
2024/02/16 11:38:32;;;;;;;;;;;461.40;1305.60;;;;;;4933025;29;19914;-79
2024/02/16 11:41:07;;;;;;;;;;;461.60;1356.80;;;;;;4938310;29;19918;-77
2024/02/16 11:43:32;;;;;;;;;;;486.50;1305.60;;;;;;4921996;29;19915;-76
2024/02/16 11:45:58;;;;;;;;;;;486.40;1305.60;;;;;;4938431;29;19940;-76
2024/02/16 11:48:27;;;;;;;;;;;486.40;1280.00;;;;;;4937676;29;19914;-75
2024/02/16 11:51:01;;;;;;;;;;;486.40;1305.60;;;;;;4938040;29;19911;-77
2024/02/16 11:53:27;;;;;;;;;;;486.70;1305.60;;;;;;4933692;29;19918;-76
2024/02/16 11:55:53;;;;;;;;;;;486.70;1280.00;;;;;;4939078;29;19907;-82
2024/02/16 11:58:19;;;;;;;;;;;486.70;1254.40;;;;;;4938490;29;19993;-77
2024/02/16 12:00:45;;;;;;;;;;;487.10;1254.40;;;;;;4920813;29;20284;-81
2024/02/16 12:03:11;;;;;;;;;;;486.70;1280.00;;;;;;4938550;29;19907;-76
2024/02/16 12:05:37;;;;;;;;;;;486.40;1228.80;;;;;;4935714;29;20005;-82
2024/02/16 12:08:03;;;;;;;;;;;461.70;1280.00;;;;;;4927724;29;20369;-82
2024/02/16 12:10:29;;;;;;;;;;;461.10;1280.00;;;;;;4938311;29;19914;-78
2024/02/16 12:12:54;;;;;;;;;;;461.20;1331.20;;;;;;4938645;29;19907;-73
2024/02/16 12:15:21;;;;;;;;;;;461.70;1254.40;;;;;;4938508;29;19911;-83
2024/02/16 12:17:47;;;;;;;;;;;486.50;1254.40;;;;;;4937085;29;19937;-73
2024/02/16 12:20:15;;;;;;;;;;;461.20;1305.60;;;;;;4937240;29;20353;-76
2024/02/16 12:22:41;;;;;;;;;;;461.20;1280.00;;;;;;4937919;29;20009;-72
2024/02/16 12:25:07;;;;;;;;;;;461.60;1254.40;;;;;;4935900;29;20005;-74
2024/02/16 12:27:33;;;;;;;;;;;461.30;1280.00;;;;;;4935821;29;19907;-79
2024/02/16 12:29:59;;;;;;;;;;;461.40;1280.00;;;;;;4933130;29;19907;-74
2024/02/16 12:32:25;;;;;;;;;;;461.40;1280.00;;;;;;4934702;29;19910;-73
2024/02/16 12:34:50;;;;;;;;;;;461.20;1280.00;;;;;;4937459;29;19950;-74
2024/02/16 12:37:17;;;;;;;;;;;461.10;1254.40;;;;;;4937955;29;20404;-74
2024/02/16 12:39:45;;;;;;;;;;;461.10;1254.40;;;;;;4936113;29;19986;-74
2024/02/16 12:42:12;;;;;;;;;;;461.00;1280.00;;;;;;4938074;29;19931;-72
2024/02/16 12:44:37;;;;;;;;;;;461.10;1305.60;;;;;;4925446;29;19958;-79
2024/02/16 12:47:03;;;;;;;;;;;461.20;1305.60;;;;;;4937868;29;19965;-81
2024/02/16 12:49:29;;;;;;;;;;;461.50;1280.00;;;;;;4938145;29;19906;-79
2024/02/16 12:51:54;;;;;;;;;;;461.40;1280.00;;;;;;4937958;29;19914;-76
2024/02/16 12:54:20;;;;;;;;;;;461.30;1254.40;;;;;;4935321;29;19961;-73
2024/02/16 12:56:46;;;;;;;;;;;461.20;1254.40;;;;;;4928723;29;19913;-74
2024/02/16 12:59:12;;;;;;;;;;;461.10;1280.00;;;;;;4936966;29;20269;-74
2024/02/16 13:01:37;;;;;;;;;;;461.20;1254.40;;;;;;4937172;29;19915;-73
2024/02/16 13:04:04;;;;;;;;;;;460.90;1280.00;;;;;;4929369;29;20400;-72
2024/02/16 13:06:30;;;;;;;;;;;460.90;1305.60;;;;;;4936391;29;19963;-74
2024/02/16 13:08:55;;;;;;;;;;;461.00;1305.60;;;;;;4931559;29;19908;-74
2024/02/16 13:11:21;;;;;;;;;;;461.00;1280.00;;;;;;4919698;29;19910;-77
2024/02/16 13:13:46;;;;;;;;;;;460.80;1280.00;;;;;;4936914;29;19954;-78
2024/02/16 13:16:12;;;;;;;;;;;436.10;1305.60;;;;;;4936531;29;20015;-79
2024/02/16 13:18:38;;;;;;;;;;;435.90;1280.00;;;;;;4936971;29;20364;-80
2024/02/16 13:21:03;;;;;;;;;;;435.70;1305.60;;;;;;4940685;29;19930;-77
2024/02/16 13:23:30;;;;;;;;;;;435.50;1305.60;;;;;;4937092;29;20379;-81
2024/02/16 13:25:56;;;;;;;;;;;435.50;1305.60;;;;;;4937086;29;19906;-81
2024/02/16 13:28:22;;;;;;;;;;;435.50;1331.20;;;;;;4937188;29;19969;-79
2024/02/16 13:30:47;;;;;;;;;;;435.60;1356.80;;;;;;4936959;29;20057;-75
2024/02/16 13:33:13;;;;;;;;;;;435.40;1305.60;;;;;;4936741;29;19930;-84
2024/02/16 13:35:39;;;;;;;;;;;435.30;1280.00;;;;;;4935207;29;19989;-79
2024/02/16 13:38:04;;;;;;;;;;;435.20;1305.60;;;;;;4936525;29;19913;-78
2024/02/16 13:40:30;;;;;;;;;;;435.20;1331.20;;;;;;4936296;29;19958;-75
2024/02/16 13:43:01;;;;;;;;;;;435.20;1331.20;;;;;;4936528;29;19907;-75